MMTM/TAM METAR and TAF weather

Enter ICAO airport designator
Station Type Date Time Source
MMTM METAR 2020/09/27 16:50 UTC NOAA

MMTM 271650Z 16008KT 10SM SCT200 31/24 A2985 RMK 8/001


Station Type Date Time Source
MMTM Decoded METAR 2020/09/27 16:50 UTC NOAA

Tampico / Gen Fj Mina, Mexico (MMTM) 22-17N 097-52W
Sep 27, 2020 - 12:50 PM EDT / 2020.09.27 1650 UTC
Wind: from the SSE (160 degrees) at 9 MPH (8 KT):0
Visibility: 10 mile(s):0
Sky conditions: partly cloudy
Temperature: 87 F (31 C)
Heat index: 95.7 F (35.4 C):1
Dew Point: 75 F (24 C)
Relative Humidity: 66%
Pressure (altimeter): 29.85 in. Hg (1010 hPa)
ob: MMTM 271650Z 16008KT 10SM SCT200 31/24 A2985 RMK 8/001
cycle: 17

Station Type Date Time Source
MMTM TAF 2020/09/27 06:51 UTC NOAA

TAF MMTM 270344Z 2706/2806 12005KT 6SM HZ SCT200
TEMPO 2711/2715 3SM BR BKN010
FM271800 13010KT 6SM HZ SCT020
FM280300 13005KT 6SM HZ SCT015

Example: see airport list